Time;durP1;ratioP1;P1;durP2;ratioP2;P2;SDS_P1;SDS_P2;PMS_P1;PMS_P2;Temp;Humidity;BMP_temperature;BMP_pressure;BME280_temperature;BME280_humidity;BME280_pressure;Samples;Min_cycle;Max_cycle;Signal;HPM_P1;HPM_P2
2021/03/09 00:02:22;;;;;;;21.37;15.30;;;21.90;45.90;;;;;;5033102;28;20199;-69
2021/03/09 00:04:48;;;;;;;17.77;13.20;;;21.90;45.90;;;;;;5033155;28;20222;-69
2021/03/09 00:07:14;;;;;;;21.00;15.40;;;21.90;45.90;;;;;;5033099;28;20183;-69
2021/03/09 00:09:40;;;;;;;18.87;14.90;;;21.90;46.00;;;;;;5033022;28;20192;-69
2021/03/09 00:12:06;;;;;;;21.47;13.50;;;21.90;46.00;;;;;;5033089;28;20171;-69
2021/03/09 00:14:32;;;;;;;18.43;13.13;;;21.90;46.00;;;;;;5033011;28;20901;-69
2021/03/09 00:16:58;;;;;;;19.67;13.73;;;21.90;46.00;;;;;;5033026;28;20414;-68
2021/03/09 00:19:23;;;;;;;20.10;14.53;;;21.90;46.00;;;;;;5033018;28;20542;-68
2021/03/09 00:21:49;;;;;;;21.47;13.73;;;21.90;46.10;;;;;;5033226;28;20179;-68
2021/03/09 00:24:16;;;;;;;20.93;13.37;;;21.90;46.10;;;;;;5032927;28;20576;-69
2021/03/09 00:26:41;;;;;;;19.17;13.37;;;21.90;46.10;;;;;;5032940;28;20402;-68
2021/03/09 00:29:07;;;;;;;17.27;12.30;;;21.90;46.10;;;;;;5032833;28;20461;-69
2021/03/09 00:31:32;;;;;;;16.80;12.50;;;21.90;46.00;;;;;;5032932;28;20183;-69
2021/03/09 00:33:58;;;;;;;19.73;13.17;;;21.90;46.00;;;;;;5032934;28;20274;-66
2021/03/09 00:36:23;;;;;;;18.13;12.30;;;21.90;46.00;;;;;;5032766;28;20171;-68
2021/03/09 00:38:49;;;;;;;18.20;12.50;;;21.90;46.00;;;;;;5032849;28;20210;-69
2021/03/09 00:41:15;;;;;;;17.97;13.07;;;21.90;46.00;;;;;;5032836;28;20214;-69
2021/03/09 00:43:40;;;;;;;19.20;13.27;;;21.90;46.00;;;;;;5032692;28;20581;-69
2021/03/09 00:46:06;;;;;;;19.20;12.10;;;21.90;46.00;;;;;;5032776;28;20183;-69
2021/03/09 00:48:39;;;;;;;16.57;13.00;;;21.90;46.00;;;;;;5032744;28;20192;-67
2021/03/09 00:51:05;;;;;;;16.70;11.50;;;21.90;46.00;;;;;;5032686;28;20191;-69
2021/03/09 00:53:30;;;;;;;15.17;11.47;;;21.90;46.00;;;;;;5032663;28;20414;-69
2021/03/09 00:55:56;;;;;;;16.70;11.80;;;21.90;46.00;;;;;;5014977;28;20426;-69
2021/03/09 00:58:22;;;;;;;16.43;12.57;;;21.80;45.90;;;;;;5032592;28;20196;-69
2021/03/09 01:00:47;;;;;;;15.97;11.40;;;21.80;45.90;;;;;;5032605;28;20180;-69
2021/03/09 01:03:13;;;;;;;17.90;12.30;;;21.80;46.00;;;;;;5034994;28;20200;-69
2021/03/09 01:05:38;;;;;;;16.70;11.87;;;21.80;46.00;;;;;;5036412;28;20251;-69
2021/03/09 01:08:05;;;;;;;16.23;11.23;;;21.80;46.00;;;;;;5036238;28;20196;-68
2021/03/09 01:10:30;;;;;;;13.77;10.43;;;21.90;46.10;;;;;;5036306;28;20179;-69
2021/03/09 01:12:56;;;;;;;17.70;11.40;;;21.80;46.00;;;;;;5036321;28;20509;-68
2021/03/09 01:15:22;;;;;;;17.87;11.47;;;21.80;46.00;;;;;;5036229;28;20175;-69
2021/03/09 01:17:47;;;;;;;14.33;10.53;;;21.80;46.00;;;;;;5034844;28;20183;-68
2021/03/09 01:20:13;;;;;;;14.43;9.97;;;21.80;46.00;;;;;;5036383;28;20635;-69
2021/03/09 01:22:39;;;;;;;18.10;11.97;;;21.80;46.00;;;;;;5035998;28;20697;-69
2021/03/09 01:25:06;;;;;;;14.63;10.10;;;21.80;46.00;;;;;;5036023;28;20493;-69
2021/03/09 01:27:32;;;;;;;14.10;10.87;;;21.80;46.00;;;;;;5034686;28;20187;-69
2021/03/09 01:29:58;;;;;;;13.90;9.60;;;21.80;46.00;;;;;;5035931;28;20414;-69
2021/03/09 01:32:24;;;;;;;13.87;10.07;;;21.80;46.10;;;;;;5035875;28;20176;-69
2021/03/09 01:34:50;;;;;;;12.43;9.50;;;21.80;46.00;;;;;;5036365;28;20901;-69
2021/03/09 01:37:15;;;;;;;14.73;10.50;;;21.70;46.00;;;;;;5035749;28;20282;-68
2021/03/09 01:39:41;;;;;;;14.47;10.30;;;21.80;46.10;;;;;;5035703;28;20206;-69
2021/03/09 01:42:07;;;;;;;10.83;9.03;;;21.70;46.00;;;;;;5035962;28;20171;-69
2021/03/09 01:44:33;;;;;;;13.90;9.77;;;21.80;46.10;;;;;;5034469;28;20450;-68
2021/03/09 01:47:02;;;;;;;15.47;10.03;;;21.70;46.00;;;;;;5035693;28;20606;-69
2021/03/09 01:49:34;;;;;;;14.13;10.17;;;21.70;46.00;;;;;;5035578;28;20198;-68
2021/03/09 01:52:01;;;;;;;14.70;9.60;;;21.70;46.00;;;;;;5035645;28;20429;-69
2021/03/09 01:54:27;;;;;;;11.90;8.70;;;21.70;46.10;;;;;;5035543;28;20756;-69
2021/03/09 01:56:53;;;;;;;11.43;9.40;;;21.70;46.10;;;;;;5035725;28;20414;-68
2021/03/09 01:59:21;;;;;;;13.10;8.93;;;21.70;46.10;;;;;;5034160;28;20196;-69
2021/03/09 02:01:47;;;;;;;12.17;8.80;;;21.70;46.10;;;;;;5035394;28;20548;-69
2021/03/09 02:04:13;;;;;;;13.50;9.73;;;21.70;46.10;;;;;;5035236;28;20461;-68
2021/03/09 02:06:39;;;;;;;14.93;9.30;;;21.70;46.10;;;;;;5035539;28;20414;-69
2021/03/09 02:09:06;;;;;;;12.43;8.60;;;21.70;46.10;;;;;;5035114;28;20195;-69
2021/03/09 02:12:06;;;;;;;10.23;8.20;;;21.70;46.10;;;;;;5035160;28;20199;-69
2021/03/09 02:14:51;;;;;;;12.63;8.47;;;21.70;46.10;;;;;;5034480;28;20402;-68
2021/03/09 02:17:37;;;;;;;13.70;9.63;;;21.70;46.10;;;;;;5035172;28;20802;-69
2021/03/09 02:20:24;;;;;;;11.53;8.13;;;21.70;46.10;;;;;;5035026;28;20402;-68
2021/03/09 02:23:08;;;;;;;11.33;8.77;;;21.60;46.10;;;;;;5035217;28;20438;-69
2021/03/09 02:25:52;;;;;;;13.07;8.40;;;21.60;46.10;;;;;;5034896;28;20421;-69
2021/03/09 02:28:42;;;;;;;13.07;9.00;;;21.70;46.20;;;;;;5035060;28;20435;-69
2021/03/09 02:31:08;;;;;;;9.57;8.00;;;21.60;46.20;;;;;;5034858;28;20391;-69
2021/03/09 02:33:39;;;;;;;11.97;8.47;;;21.60;46.20;;;;;;5034755;28;20402;-69
2021/03/09 02:36:12;;;;;;;11.13;7.70;;;21.60;46.20;;;;;;5033873;28;20176;-69
2021/03/09 02:38:49;;;;;;;9.17;8.07;;;21.60;46.10;;;;;;5034825;28;20454;-69
2021/03/09 02:41:16;;;;;;;9.17;6.50;;;21.70;46.20;;;;;;5034676;28;20800;-68
2021/03/09 02:43:46;;;;;;;12.30;8.30;;;21.60;46.20;;;;;;5034497;28;20458;-68
2021/03/09 02:46:14;;;;;;;11.30;8.17;;;21.60;46.10;;;;;;5034768;28;20420;-68
2021/03/09 02:48:41;;;;;;;11.80;8.43;;;21.60;46.10;;;;;;5034917;28;20454;-68
2021/03/09 02:51:07;;;;;;;9.30;7.50;;;21.60;46.10;;;;;;5034403;28;20406;-68
2021/03/09 02:53:35;;;;;;;9.70;7.80;;;21.60;46.20;;;;;;5033631;28;20435;-68
2021/03/09 02:56:06;;;;;;;9.57;7.87;;;21.60;46.20;;;;;;5034289;28;20414;-68
2021/03/09 02:58:33;;;;;;;10.27;7.33;;;21.60;46.10;;;;;;5032894;28;20525;-66
2021/03/09 03:01:00;;;;;;;9.37;8.00;;;21.60;46.20;;;;;;5034266;28;20410;-68
2021/03/09 03:03:26;;;;;;;9.47;6.67;;;21.60;46.20;;;;;;5034135;28;20493;-68
2021/03/09 03:05:57;;;;;;;13.23;7.70;;;21.60;46.70;;;;;;5034062;28;20411;-68
2021/03/09 03:08:24;;;;;;;13.10;7.10;;;21.60;46.10;;;;;;5034013;28;20492;-68
2021/03/09 03:10:52;;;;;;;10.63;8.03;;;21.60;46.20;;;;;;5033993;28;20410;-68
2021/03/09 03:13:20;;;;;;;10.30;7.50;;;21.60;46.20;;;;;;5034460;28;20807;-68
2021/03/09 03:15:50;;;;;;;11.47;7.73;;;21.60;46.20;;;;;;5033968;28;20418;-68
2021/03/09 03:18:18;;;;;;;11.63;7.87;;;21.60;46.20;;;;;;5032596;28;20441;-68
2021/03/09 03:20:46;;;;;;;10.83;8.10;;;21.60;46.20;;;;;;5034101;28;20421;-68
2021/03/09 03:23:13;;;;;;;9.00;6.60;;;21.60;46.20;;;;;;5033732;28;20486;-68
2021/03/09 03:25:39;;;;;;;8.83;6.50;;;21.60;46.20;;;;;;5032930;28;20775;-69
2021/03/09 03:28:09;;;;;;;10.20;7.33;;;21.60;46.20;;;;;;5033642;28;20427;-68
2021/03/09 03:30:36;;;;;;;12.53;7.33;;;21.60;46.20;;;;;;5033710;28;20410;-68
2021/03/09 03:33:02;;;;;;;10.93;8.37;;;21.60;46.20;;;;;;5033627;28;20430;-68
2021/03/09 03:35:28;;;;;;;10.77;6.67;;;21.60;46.20;;;;;;5033615;28;20494;-68
2021/03/09 03:37:54;;;;;;;10.30;7.60;;;21.50;46.10;;;;;;5033467;28;20450;-67
2021/03/09 03:40:21;;;;;;;11.63;6.83;;;21.50;46.10;;;;;;5033532;28;20425;-68
2021/03/09 03:42:47;;;;;;;10.57;7.67;;;21.60;46.20;;;;;;5033694;28;20492;-68
2021/03/09 03:45:16;;;;;;;8.87;6.80;;;21.50;46.20;;;;;;5032167;28;20410;-68
2021/03/09 03:47:42;;;;;;;10.00;6.70;;;21.60;46.20;;;;;;5033335;28;20407;-68
2021/03/09 03:50:11;;;;;;;8.90;6.33;;;21.50;46.20;;;;;;5033376;28;20403;-68
2021/03/09 03:53:02;;;;;;;11.60;6.73;;;21.50;46.20;;;;;;5033336;28;20437;-68
2021/03/09 03:55:33;;;;;;;8.03;6.53;;;21.60;46.20;;;;;;5033762;28;20417;-68
2021/03/09 03:58:17;;;;;;;8.43;6.77;;;21.50;46.20;;;;;;5033207;28;20435;-68
2021/03/09 04:00:46;;;;;;;8.77;6.63;;;21.50;46.20;;;;;;5033269;28;20386;-68
2021/03/09 04:03:13;;;;;;;7.40;6.00;;;21.50;46.30;;;;;;5033418;28;20821;-68
2021/03/09 04:05:44;;;;;;;9.50;6.80;;;21.50;46.20;;;;;;5033145;28;20410;-68
2021/03/09 04:08:09;;;;;;;11.17;7.60;;;21.50;46.20;;;;;;5033137;28;20521;-68
2021/03/09 04:10:35;;;;;;;7.93;6.13;;;21.50;46.20;;;;;;5033121;28;20438;-68
2021/03/09 04:13:01;;;;;;;8.40;5.87;;;21.50;46.20;;;;;;5033659;28;20191;-68
2021/03/09 04:15:29;;;;;;;9.33;7.30;;;21.50;46.20;;;;;;5031880;28;20655;-68
2021/03/09 04:17:56;;;;;;;8.17;5.67;;;21.50;46.20;;;;;;5032981;28;20434;-67
2021/03/09 04:20:23;;;;;;;6.70;5.67;;;21.50;46.20;;;;;;5033016;28;20497;-68
2021/03/09 04:22:50;;;;;;;8.97;6.27;;;21.50;46.20;;;;;;5033205;28;20458;-67
2021/03/09 04:25:17;;;;;;;14.60;6.80;;;21.50;46.20;;;;;;5031706;28;20423;-68
2021/03/09 04:27:44;;;;;;;7.63;6.20;;;21.50;46.20;;;;;;5032856;28;20449;-68
2021/03/09 04:30:12;;;;;;;8.97;6.17;;;21.50;46.20;;;;;;5032914;28;20560;-68
2021/03/09 04:32:38;;;;;;;6.83;5.67;;;21.50;46.20;;;;;;5032930;28;20768;-68
2021/03/09 04:35:05;;;;;;;9.30;6.60;;;21.50;46.80;;;;;;5031680;28;20501;-68
2021/03/09 04:37:31;;;;;;;8.43;6.13;;;21.50;46.20;;;;;;5034099;28;20196;-67
2021/03/09 04:39:58;;;;;;;7.60;6.40;;;21.50;46.30;;;;;;5036983;28;20952;-68
2021/03/09 04:42:27;;;;;;;8.40;5.80;;;21.50;46.20;;;;;;5036999;28;20480;-68
2021/03/09 04:44:52;;;;;;;6.60;5.60;;;21.50;46.30;;;;;;5036937;28;20406;-68
2021/03/09 04:47:19;;;;;;;8.50;6.13;;;21.50;46.20;;;;;;5037011;28;20466;-68
2021/03/09 04:49:45;;;;;;;5.83;5.00;;;21.50;46.30;;;;;;5035355;28;20234;-68
2021/03/09 04:52:12;;;;;;;7.47;6.00;;;21.50;46.30;;;;;;5036605;28;20442;-68
2021/03/09 04:54:37;;;;;;;7.73;5.77;;;21.40;46.20;;;;;;5036622;28;20171;-69
2021/03/09 04:57:03;;;;;;;7.60;6.33;;;21.40;46.20;;;;;;5036571;28;20456;-68
2021/03/09 04:59:29;;;;;;;8.00;6.23;;;21.40;46.20;;;;;;5036715;28;20199;-68
2021/03/09 05:01:55;;;;;;;7.50;5.73;;;21.40;46.30;;;;;;5036468;28;20940;-69
2021/03/09 05:04:20;;;;;;;8.37;5.67;;;21.40;46.30;;;;;;5035081;28;20253;-68
2021/03/09 05:06:46;;;;;;;7.40;5.70;;;21.40;46.30;;;;;;5036781;28;20180;-68
2021/03/09 05:09:12;;;;;;;7.27;6.10;;;21.30;46.20;;;;;;5036212;28;20195;-68
2021/03/09 05:11:37;;;;;;;7.50;5.47;;;21.30;46.30;;;;;;5036295;28;20168;-68
2021/03/09 05:14:03;;;;;;;9.10;5.57;;;21.30;46.30;;;;;;5036272;28;20693;-67
2021/03/09 05:16:28;;;;;;;7.77;5.43;;;21.30;46.30;;;;;;5036182;28;20729;-68
2021/03/09 05:18:54;;;;;;;9.20;5.97;;;21.30;46.40;;;;;;5036092;28;20607;-67
2021/03/09 05:21:20;;;;;;;9.60;7.93;;;21.30;46.40;;;;;;5036101;28;20262;-68
2021/03/09 05:23:46;;;;;;;7.30;5.67;;;21.30;46.40;;;;;;5035998;28;20187;-67
2021/03/09 05:26:11;;;;;;;7.30;5.90;;;21.30;46.40;;;;;;5036029;28;20456;-68
2021/03/09 05:28:37;;;;;;;8.03;6.03;;;21.30;46.40;;;;;;5035973;28;20191;-68
2021/03/09 05:31:03;;;;;;;8.03;5.90;;;21.30;46.40;;;;;;5034654;28;20226;-68
2021/03/09 05:33:29;;;;;;;7.07;5.10;;;21.20;46.30;;;;;;5035916;28;20176;-67
2021/03/09 05:35:54;;;;;;;7.50;5.33;;;21.20;46.30;;;;;;5034558;28;20650;-65
2021/03/09 05:38:20;;;;;;;6.50;5.27;;;21.30;46.40;;;;;;5035692;28;20956;-68
2021/03/09 05:40:46;;;;;;;6.87;5.47;;;21.30;46.40;;;;;;5036261;28;20197;-68
2021/03/09 05:43:13;;;;;;;6.90;4.70;;;21.30;46.40;;;;;;5035846;28;20520;-68
2021/03/09 05:45:39;;;;;;;6.50;5.33;;;21.30;46.40;;;;;;5035680;28;20425;-68
2021/03/09 05:48:05;;;;;;;8.60;5.30;;;21.30;46.30;;;;;;5034031;28;20429;-67
2021/03/09 05:50:31;;;;;;;6.83;5.00;;;21.30;46.30;;;;;;5034773;28;20217;-68
2021/03/09 05:52:56;;;;;;;6.23;5.10;;;21.30;46.30;;;;;;5035796;28;20418;-68
2021/03/09 05:55:22;;;;;;;7.43;5.27;;;21.40;46.40;;;;;;5035470;28;20411;-68
2021/03/09 05:57:49;;;;;;;5.47;4.67;;;21.40;46.40;;;;;;5035330;28;20270;-68
2021/03/09 06:00:15;;;;;;;5.93;4.67;;;21.40;46.30;;;;;;5035368;28;20271;-68
2021/03/09 06:02:41;;;;;;;5.90;4.37;;;21.40;46.30;;;;;;5035553;28;20477;-68
2021/03/09 06:05:09;;;;;;;5.87;5.23;;;21.40;46.30;;;;;;5035516;28;20461;-68
2021/03/09 06:07:35;;;;;;;6.57;4.63;;;21.50;46.40;;;;;;5035183;28;20935;-68
2021/03/09 06:10:01;;;;;;;6.73;4.80;;;21.40;46.30;;;;;;5035186;28;20417;-68
2021/03/09 06:12:26;;;;;;;5.00;4.20;;;21.50;46.30;;;;;;5035116;28;20402;-67
2021/03/09 06:14:55;;;;;;;6.93;4.77;;;21.40;46.20;;;;;;5035022;28;20184;-68
2021/03/09 06:17:25;;;;;;;4.70;4.20;;;21.50;46.30;;;;;;5035045;28;20669;-67
2021/03/09 06:19:51;;;;;;;7.83;5.23;;;21.50;46.30;;;;;;5035199;28;20434;-68
2021/03/09 06:22:18;;;;;;;5.00;4.17;;;21.50;46.20;;;;;;5034884;28;20548;-67
2021/03/09 06:24:45;;;;;;;6.87;5.13;;;21.50;46.20;;;;;;5033642;28;20726;-68
2021/03/09 06:27:24;;;;;;;6.93;5.30;;;21.50;46.20;;;;;;5034895;28;20781;-68
2021/03/09 06:29:50;;;;;;;5.63;4.77;;;21.50;46.10;;;;;;5033564;28;20521;-68
2021/03/09 06:32:16;;;;;;;5.27;4.40;;;21.50;46.10;;;;;;5033484;28;20414;-68
2021/03/09 06:34:41;;;;;;;5.97;4.60;;;21.50;46.10;;;;;;5034963;28;20403;-68
2021/03/09 06:37:26;;;;;;;6.93;4.63;;;21.50;46.10;;;;;;5034558;28;20233;-68
2021/03/09 06:40:06;;;;;;;6.03;4.30;;;21.60;46.20;;;;;;5034656;28;20561;-68
2021/03/09 06:42:39;;;;;;;5.53;4.67;;;21.50;46.10;;;;;;5034901;28;20458;-67
2021/03/09 06:45:09;;;;;;;5.57;4.33;;;21.50;46.10;;;;;;5034772;28;20564;-68
2021/03/09 06:47:47;;;;;;;5.47;4.77;;;21.50;46.10;;;;;;5034389;28;20410;-68
2021/03/09 06:50:17;;;;;;;6.20;4.70;;;21.50;46.10;;;;;;5034997;28;20395;-68
2021/03/09 06:52:45;;;;;;;4.97;4.20;;;21.50;46.10;;;;;;5034416;28;20406;-68
2021/03/09 06:55:12;;;;;;;5.07;4.17;;;21.50;46.10;;;;;;5032986;28;20424;-69
2021/03/09 06:57:39;;;;;;;6.20;4.80;;;21.50;46.10;;;;;;5034186;28;20420;-67
2021/03/09 07:00:08;;;;;;;7.80;4.97;;;21.50;46.10;;;;;;5034019;28;20417;-68
2021/03/09 07:02:33;;;;;;;6.03;4.07;;;21.50;46.10;;;;;;5034372;28;20500;-68
2021/03/09 07:05:10;;;;;;;4.53;4.10;;;21.60;46.20;;;;;;5034123;28;20410;-67
2021/03/09 07:07:37;;;;;;;6.60;4.60;;;21.50;46.10;;;;;;5034022;28;20160;-68
2021/03/09 07:10:10;;;;;;;6.37;4.60;;;21.50;46.10;;;;;;5033958;28;20521;-68
2021/03/09 07:12:37;;;;;;;5.20;4.27;;;21.50;46.10;;;;;;5033964;28;20819;-68
2021/03/09 07:15:06;;;;;;;5.87;4.40;;;21.50;46.10;;;;;;5033923;28;20870;-67
2021/03/09 07:17:33;;;;;;;5.77;4.17;;;21.50;46.10;;;;;;5033995;28;20433;-67
2021/03/09 07:19:59;;;;;;;6.77;5.00;;;21.60;46.80;;;;;;5034189;28;20413;-68
2021/03/09 07:22:26;;;;;;;6.70;4.23;;;21.60;46.20;;;;;;5033668;28;20793;-68
2021/03/09 07:25:03;;;;;;;4.63;4.10;;;21.60;46.20;;;;;;5032468;28;20426;-68
2021/03/09 07:27:41;;;;;;;4.43;4.03;;;21.60;46.20;;;;;;5033822;28;20426;-68
2021/03/09 07:30:10;;;;;;;4.93;3.87;;;21.60;46.20;;;;;;5033611;28;20776;-68
2021/03/09 07:32:39;;;;;;;6.20;4.43;;;21.60;46.20;;;;;;5033695;28;20406;-68
2021/03/09 07:35:06;;;;;;;4.80;3.60;;;21.60;46.20;;;;;;5033546;28;20427;-68
2021/03/09 07:37:35;;;;;;;4.10;3.70;;;21.60;46.20;;;;;;5033470;28;20464;-68
2021/03/09 07:40:02;;;;;;;4.60;4.07;;;21.60;46.20;;;;;;5033482;28;20901;-68
2021/03/09 07:42:28;;;;;;;5.67;4.10;;;21.60;46.20;;;;;;5033348;28;20480;-68
2021/03/09 07:44:54;;;;;;;6.30;4.03;;;21.60;46.20;;;;;;5033579;28;20407;-68
2021/03/09 07:47:21;;;;;;;7.90;4.47;;;21.60;46.20;;;;;;5033367;28;20175;-67
2021/03/09 07:49:48;;;;;;;7.30;3.97;;;21.60;46.20;;;;;;5033280;28;20202;-68
2021/03/09 07:52:19;;;;;;;5.40;3.70;;;21.70;46.30;;;;;;5033272;28;20406;-68
2021/03/09 07:55:11;;;;;;;5.00;3.73;;;21.70;46.20;;;;;;5033579;28;20417;-68
2021/03/09 07:57:37;;;;;;;6.47;4.13;;;21.70;46.10;;;;;;5031252;28;20426;-66
2021/03/09 08:00:12;;;;;;;4.70;4.13;;;21.70;46.10;;;;;;5033083;28;20957;-67
2021/03/09 08:02:43;;;;;;;5.80;3.97;;;21.80;46.20;;;;;;5033116;28;20828;-68
2021/03/09 08:05:13;;;;;;;6.30;3.80;;;21.80;46.20;;;;;;5033387;28;20457;-67
2021/03/09 08:07:56;;;;;;;5.80;4.30;;;21.80;46.10;;;;;;5033155;28;20909;-68
2021/03/09 08:10:34;;;;;;;4.77;4.03;;;21.90;46.20;;;;;;5033073;28;20464;-68
2021/03/09 08:13:08;;;;;;;4.57;3.90;;;21.90;46.20;;;;;;5032980;28;20441;-68
2021/03/09 08:15:43;;;;;;;4.33;3.53;;;21.80;46.10;;;;;;5031764;28;20440;-68
2021/03/09 08:18:24;;;;;;;5.40;4.00;;;21.90;46.10;;;;;;5031724;28;20682;-68
2021/03/09 08:20:56;;;;;;;5.93;4.17;;;21.90;46.10;;;;;;5032971;28;20434;-68
2021/03/09 08:23:34;;;;;;;5.13;3.80;;;21.90;46.20;;;;;;5032915;28;20454;-66
2021/03/09 08:26:00;;;;;;;7.07;3.50;;;21.90;46.10;;;;;;5032856;28;20448;-68
2021/03/09 08:28:33;;;;;;;4.73;3.60;;;21.90;46.10;;;;;;5031595;28;20457;-68
2021/03/09 08:31:11;;;;;;;5.17;3.63;;;22.00;46.20;;;;;;5032839;28;20409;-67
2021/03/09 08:33:44;;;;;;;4.80;3.37;;;22.00;46.20;;;;;;5032790;28;20414;-68
2021/03/09 08:36:19;;;;;;;6.07;3.27;;;22.00;46.20;;;;;;5032803;28;20395;-68
2021/03/09 08:39:05;;;;;;;4.47;3.87;;;22.00;46.20;;;;;;5032738;28;20515;-68
2021/03/09 08:41:37;;;;;;;4.40;3.43;;;22.00;46.20;;;;;;5032730;28;20398;-68
2021/03/09 08:44:20;;;;;;;4.67;3.83;;;22.00;46.20;;;;;;5032671;28;20457;-68
2021/03/09 08:47:05;;;;;;;3.97;3.57;;;22.00;46.20;;;;;;5033185;28;20402;-68
2021/03/09 08:49:37;;;;;;;5.53;4.03;;;22.00;46.20;;;;;;5032712;28;20429;-68
2021/03/09 08:52:18;;;;;;;3.73;3.20;;;22.00;46.20;;;;;;5032642;28;20405;-65
2021/03/09 08:54:44;;;;;;;4.30;3.37;;;22.10;46.30;;;;;;5033410;28;20418;-68
2021/03/09 08:57:11;;;;;;;5.07;3.77;;;22.10;46.30;;;;;;5032660;28;20418;-66
2021/03/09 08:59:38;;;;;;;4.90;4.10;;;22.10;46.30;;;;;;5032541;28;20195;-68
2021/03/09 09:02:08;;;;;;;5.50;3.97;;;22.10;46.30;;;;;;5032523;28;20443;-68
2021/03/09 09:04:34;;;;;;;4.10;3.53;;;22.10;46.30;;;;;;5031219;28;20462;-68
2021/03/09 09:07:15;;;;;;;4.10;3.10;;;22.10;46.20;;;;;;5032492;28;20407;-66
2021/03/09 09:09:40;;;;;;;3.80;3.43;;;22.10;46.20;;;;;;5032757;28;20437;-65
2021/03/09 09:12:36;;;;;;;4.33;3.63;;;22.10;46.20;;;;;;5032807;28;20403;-67
2021/03/09 09:15:08;;;;;;;6.67;3.97;;;22.10;46.20;;;;;;5024227;28;20546;-67
2021/03/09 09:17:36;;;;;;;6.93;5.20;;;22.20;46.30;;;;;;5032365;28;20891;-67
2021/03/09 09:20:08;;;;;;;9.80;7.30;;;22.20;46.30;;;;;;5032448;28;20407;-68
2021/03/09 09:22:34;;;;;;;16.47;10.07;;;22.20;46.30;;;;;;5032556;28;20446;-68
2021/03/09 09:25:04;;;;;;;16.70;12.60;;;22.20;46.30;;;;;;5035921;28;20509;-68
2021/03/09 09:27:43;;;;;;;24.73;15.83;;;22.20;46.90;;;;;;5036300;28;20590;-65
2021/03/09 09:30:15;;;;;;;22.57;17.03;;;22.20;46.30;;;;;;5036254;28;20386;-68
2021/03/09 09:32:59;;;;;;;28.00;18.63;;;22.20;46.30;;;;;;5035956;28;20808;-68
2021/03/09 09:35:27;;;;;;;29.90;21.00;;;22.20;46.20;;;;;;5034385;28;20394;-68
2021/03/09 09:38:05;;;;;;;32.90;22.40;;;22.20;46.30;;;;;;5033459;28;20489;-66
2021/03/09 09:40:35;;;;;;;32.70;23.80;;;22.20;46.30;;;;;;5033646;28;20425;-66
2021/03/09 09:43:10;;;;;;;38.60;26.37;;;22.20;46.30;;;;;;5033787;28;20492;-66
2021/03/09 09:45:50;;;;;;;40.10;27.20;;;22.30;46.40;;;;;;5033562;28;20406;-67
2021/03/09 09:48:21;;;;;;;36.47;26.70;;;22.20;46.30;;;;;;5033951;28;20476;-67
2021/03/09 09:50:48;;;;;;;42.20;28.80;;;22.30;46.40;;;;;;5034217;28;20429;-67
2021/03/09 09:53:37;;;;;;;39.90;29.87;;;22.30;46.40;;;;;;5035711;28;20778;-67
2021/03/09 09:56:10;;;;;;;48.50;32.80;;;22.30;46.40;;;;;;5035364;28;20964;-68
2021/03/09 09:58:46;;;;;;;44.50;32.60;;;22.30;46.40;;;;;;5035830;28;20477;-68
2021/03/09 10:01:13;;;;;;;43.53;31.90;;;22.30;46.40;;;;;;5033941;28;20414;-67
2021/03/09 10:04:05;;;;;;;47.07;34.47;;;22.30;46.40;;;;;;5033860;28;20453;-67
2021/03/09 10:06:38;;;;;;;46.57;32.73;;;22.30;46.40;;;;;;5033916;28;20494;-67
2021/03/09 10:09:13;;;;;;;44.03;34.20;;;22.30;46.40;;;;;;5035051;28;20445;-67
2021/03/09 10:11:45;;;;;;;49.23;35.00;;;22.30;46.40;;;;;;5033847;28;20488;-67
2021/03/09 10:14:11;;;;;;;49.53;35.40;;;22.30;46.40;;;;;;5034953;28;20418;-68
2021/03/09 10:16:38;;;;;;;46.87;35.03;;;22.30;46.40;;;;;;5033968;28;20410;-67
2021/03/09 10:19:05;;;;;;;47.20;34.40;;;22.30;46.40;;;;;;5034946;28;20426;-67
2021/03/09 10:21:34;;;;;;;55.13;36.13;;;22.30;46.40;;;;;;5017368;28;20418;-67
2021/03/09 10:24:02;;;;;;;51.27;36.50;;;22.40;46.40;;;;;;5033656;28;20454;-68
2021/03/09 10:26:41;;;;;;;55.67;36.50;;;22.40;46.50;;;;;;5034478;28;20513;-68
2021/03/09 10:29:13;;;;;;;49.33;36.30;;;22.40;46.50;;;;;;5034681;28;20441;-66
2021/03/09 10:31:43;;;;;;;49.17;35.33;;;22.40;46.50;;;;;;5034975;28;20423;-67
2021/03/09 10:34:10;;;;;;;42.80;33.63;;;22.40;46.40;;;;;;5033477;28;20426;-68
2021/03/09 10:37:00;;;;;;;48.50;33.43;;;22.40;46.40;;;;;;5034183;28;20839;-68
2021/03/09 10:39:27;;;;;;;44.67;32.40;;;22.40;46.40;;;;;;5034827;28;20484;-68
2021/03/09 10:41:52;;;;;;;46.30;32.23;;;22.30;46.30;;;;;;5034652;28;20410;-67
2021/03/09 10:44:34;;;;;;;40.97;31.37;;;22.30;46.30;;;;;;5034699;28;20453;-68
2021/03/09 10:47:05;;;;;;;42.80;31.60;;;22.30;46.30;;;;;;5035124;28;20168;-67
2021/03/09 10:49:32;;;;;;;43.37;31.63;;;22.30;46.30;;;;;;5034743;28;20477;-69
2021/03/09 10:52:08;;;;;;;43.70;30.27;;;22.30;46.30;;;;;;5034546;28;20406;-68
2021/03/09 10:54:36;;;;;;;41.60;30.47;;;22.30;46.20;;;;;;5034816;28;20976;-68
2021/03/09 10:57:04;;;;;;;35.30;27.73;;;22.30;46.30;;;;;;5034678;28;20920;-67
2021/03/09 10:59:30;;;;;;;41.27;29.97;;;22.30;46.30;;;;;;5034067;28;20426;-67
2021/03/09 11:01:55;;;;;;;39.80;29.53;;;22.20;46.20;;;;;;5034622;28;20457;-68
2021/03/09 11:04:21;;;;;;;41.03;28.73;;;22.20;46.10;;;;;;5015486;28;20218;-68
2021/03/09 11:06:47;;;;;;;39.50;27.37;;;22.30;46.20;;;;;;5032661;28;20206;-68
2021/03/09 11:09:12;;;;;;;37.23;28.13;;;22.20;46.10;;;;;;5032841;28;20196;-68
2021/03/09 11:11:38;;;;;;;39.57;29.37;;;22.20;46.20;;;;;;5016374;28;20178;-68
2021/03/09 11:14:04;;;;;;;36.20;28.70;;;22.20;46.20;;;;;;5016542;28;20171;-68
2021/03/09 11:16:30;;;;;;;40.27;28.60;;;22.20;46.20;;;;;;5016498;28;20175;-68
2021/03/09 11:19:00;;;;;;;38.47;26.80;;;22.20;46.20;;;;;;5032553;28;20208;-68
2021/03/09 11:21:26;;;;;;;34.13;26.87;;;22.20;46.20;;;;;;5032619;28;20467;-68
2021/03/09 11:23:52;;;;;;;39.80;28.60;;;22.20;46.20;;;;;;5032493;28;20454;-68
2021/03/09 11:26:20;;;;;;;33.90;27.13;;;22.20;46.20;;;;;;5032907;28;20806;-66
2021/03/09 11:28:46;;;;;;;34.77;28.27;;;22.20;46.20;;;;;;5033765;28;20485;-68
2021/03/09 11:31:16;;;;;;;39.07;26.53;;;22.20;46.30;;;;;;5032536;28;20502;-68
2021/03/09 11:33:42;;;;;;;36.10;25.00;;;22.20;46.80;;;;;;5032649;28;20418;-68
2021/03/09 11:36:09;;;;;;;39.87;28.53;;;22.20;46.20;;;;;;5032412;28;20481;-68
2021/03/09 11:38:35;;;;;;;34.30;23.80;;;22.20;46.20;;;;;;5032245;28;20507;-68
2021/03/09 11:41:02;;;;;;;35.30;26.87;;;22.20;46.20;;;;;;5032371;28;20456;-69
2021/03/09 11:43:27;;;;;;;33.63;25.83;;;22.20;46.20;;;;;;5032299;28;20493;-68
2021/03/09 11:45:54;;;;;;;35.47;26.67;;;22.20;46.20;;;;;;5033621;28;20446;-68
2021/03/09 11:48:19;;;;;;;45.40;27.57;;;22.20;46.20;;;;;;5032320;28;20253;-68
2021/03/09 11:50:45;;;;;;;32.30;24.67;;;22.20;46.20;;;;;;5032141;28;20783;-68
2021/03/09 11:53:10;;;;;;;37.23;26.93;;;22.20;46.20;;;;;;5033338;28;20245;-68
2021/03/09 11:55:36;;;;;;;37.10;26.03;;;22.20;46.30;;;;;;5033328;28;20183;-68
2021/03/09 11:58:02;;;;;;;36.30;25.80;;;22.10;46.20;;;;;;5032489;28;20557;-68
2021/03/09 12:00:28;;;;;;;37.93;25.93;;;22.10;46.20;;;;;;5031907;28;20211;-68
2021/03/09 12:02:53;;;;;;;36.90;25.40;;;22.20;46.30;;;;;;5033135;28;20199;-69
2021/03/09 12:05:19;;;;;;;38.13;24.30;;;22.10;46.30;;;;;;5033108;28;20176;-69
2021/03/09 12:07:44;;;;;;;34.67;24.00;;;22.20;46.30;;;;;;5033107;28;20246;-67
2021/03/09 12:10:10;;;;;;;38.60;24.60;;;22.10;46.30;;;;;;5033110;28;20646;-67
2021/03/09 12:12:36;;;;;;;32.60;24.13;;;22.10;46.30;;;;;;5031774;28;20171;-68
2021/03/09 12:15:02;;;;;;;35.47;26.27;;;22.10;46.30;;;;;;5033075;28;20225;-68
2021/03/09 12:17:28;;;;;;;42.37;24.80;;;22.10;46.40;;;;;;5033446;28;20230;-69
2021/03/09 12:19:53;;;;;;;36.50;24.23;;;22.10;46.40;;;;;;5033010;28;20426;-67
2021/03/09 12:22:20;;;;;;;40.10;24.83;;;22.10;46.40;;;;;;5033544;28;20164;-68
2021/03/09 12:24:45;;;;;;;36.27;25.67;;;22.10;46.40;;;;;;5033028;28;20247;-69
2021/03/09 12:27:12;;;;;;;34.60;24.57;;;22.10;46.40;;;;;;5032951;28;20489;-67
2021/03/09 12:29:37;;;;;;;37.30;25.90;;;22.10;46.40;;;;;;5032842;28;20186;-69
2021/03/09 12:32:03;;;;;;;35.20;24.37;;;22.10;46.40;;;;;;5033143;28;20760;-68
2021/03/09 12:34:29;;;;;;;34.80;24.53;;;22.10;46.40;;;;;;5032890;28;20546;-68
2021/03/09 12:36:54;;;;;;;36.93;24.20;;;22.10;46.40;;;;;;5031563;28;20191;-68
2021/03/09 12:39:20;;;;;;;38.17;24.00;;;22.10;47.00;;;;;;5032724;28;20207;-67
2021/03/09 12:41:45;;;;;;;29.13;21.47;;;22.10;46.90;;;;;;5032864;28;20194;-68
2021/03/09 12:44:11;;;;;;;26.60;17.40;;;22.00;46.00;;;;;;5032299;28;20206;-68
2021/03/09 12:46:37;;;;;;;19.60;15.73;;;22.00;45.70;;;;;;5032809;28;20255;-66
2021/03/09 12:49:02;;;;;;;21.93;14.97;;;22.00;45.70;;;;;;5032716;28;20191;-68